Time;durP1;ratioP1;P1;durP2;ratioP2;P2;SDS_P1;SDS_P2;PMS_P1;PMS_P2;Temp;Humidity;BMP_temperature;BMP_pressure;BME280_temperature;BME280_humidity;BME280_pressure;Samples;Min_cycle;Max_cycle;Signal;HPM_P1;HPM_P2
2023/03/09 00:01:44;;;;;;;2.20;1.25;;;10.70;99.90;;;;;;5014648;28;20084;-65
2023/03/09 00:04:14;;;;;;;2.35;1.38;;;10.80;99.90;;;;;;5017444;28;20029;-64
2023/03/09 00:06:40;;;;;;;2.90;1.38;;;10.90;99.90;;;;;;5003867;28;20036;-65
2023/03/09 00:09:07;;;;;;;2.80;1.17;;;10.90;99.90;;;;;;5014201;28;20091;-65
2023/03/09 00:11:33;;;;;;;2.72;1.20;;;10.90;99.90;;;;;;5010261;28;20025;-65
2023/03/09 00:13:59;;;;;;;3.50;1.20;;;10.90;99.90;;;;;;5010793;28;20052;-65
2023/03/09 00:16:27;;;;;;;3.08;1.45;;;10.90;99.90;;;;;;5003714;28;20153;-65
2023/03/09 00:18:56;;;;;;;2.80;1.20;;;10.90;99.90;;;;;;5011913;28;20238;-65
2023/03/09 00:21:34;;;;;;;3.78;1.30;;;10.90;99.90;;;;;;5010821;28;20041;-65
2023/03/09 00:24:16;;;;;;;1.65;0.90;;;10.90;99.90;;;;;;5014760;28;20038;-65
2023/03/09 00:26:43;;;;;;;2.92;1.30;;;11.00;99.90;;;;;;5014453;28;20124;-65
2023/03/09 00:29:11;;;;;;;1.88;1.20;;;10.90;99.90;;;;;;5008350;28;20469;-66
2023/03/09 00:31:37;;;;;;;2.53;1.00;;;10.90;99.90;;;;;;4990232;28;20675;-66
2023/03/09 00:34:03;;;;;;;2.15;1.02;;;11.00;99.90;;;;;;5004230;28;20033;-66
2023/03/09 00:36:30;;;;;;;1.10;1.00;;;11.00;99.90;;;;;;5013188;28;20049;-66
2023/03/09 00:38:57;;;;;;;1.60;1.30;;;11.00;99.90;;;;;;5012156;28;20064;-65
2023/03/09 00:41:26;;;;;;;4.18;1.20;;;11.10;99.90;;;;;;5004334;28;20115;-66
2023/03/09 00:43:52;;;;;;;2.72;1.20;;;11.10;99.90;;;;;;5010425;28;20179;-64
2023/03/09 00:46:18;;;;;;;2.05;1.20;;;11.10;99.90;;;;;;5011252;28;20143;-65
2023/03/09 00:48:44;;;;;;;2.03;1.10;;;11.10;99.90;;;;;;5014167;28;20135;-66
2023/03/09 00:51:10;;;;;;;2.22;1.00;;;11.20;99.90;;;;;;5005168;28;20038;-66
2023/03/09 00:53:36;;;;;;;1.38;0.90;;;11.20;99.90;;;;;;5013295;28;20132;-66
2023/03/09 00:56:04;;;;;;;4.80;1.80;;;11.20;99.90;;;;;;5014282;28;20045;-66
2023/03/09 00:58:30;;;;;;;3.17;1.50;;;11.30;99.90;;;;;;4997941;28;20041;-66
2023/03/09 01:00:58;;;;;;;2.35;1.05;;;11.30;99.90;;;;;;5013044;28;20036;-66
2023/03/09 01:03:24;;;;;;;2.58;1.17;;;11.30;99.90;;;;;;5011422;28;20477;-65
2023/03/09 01:05:50;;;;;;;2.58;1.10;;;11.40;99.90;;;;;;5015161;28;20051;-64
2023/03/09 01:08:16;;;;;;;2.90;1.20;;;11.40;99.90;;;;;;5010290;28;20119;-65
2023/03/09 01:10:42;;;;;;;2.53;1.48;;;11.40;99.90;;;;;;5012717;28;20340;-64
2023/03/09 01:13:10;;;;;;;2.83;1.52;;;11.40;99.90;;;;;;5011407;28;20057;-65
2023/03/09 01:15:36;;;;;;;2.15;1.23;;;11.40;99.90;;;;;;5015847;28;20041;-65
2023/03/09 01:18:02;;;;;;;2.00;1.00;;;11.30;99.90;;;;;;5009781;28;20048;-65
2023/03/09 01:20:28;;;;;;;1.35;1.02;;;11.20;99.90;;;;;;5004105;28;20038;-65
2023/03/09 01:22:54;;;;;;;3.08;1.10;;;11.20;99.90;;;;;;5008023;28;20034;-65
2023/03/09 01:25:19;;;;;;;1.77;1.40;;;11.10;99.90;;;;;;5005983;28;20253;-65
2023/03/09 01:27:45;;;;;;;1.73;1.17;;;11.10;99.90;;;;;;5007978;28;20556;-65
2023/03/09 01:30:11;;;;;;;2.28;1.42;;;11.10;99.90;;;;;;5008344;28;20043;-65
2023/03/09 01:32:37;;;;;;;2.67;1.63;;;11.20;99.90;;;;;;4986217;28;20041;-65
2023/03/09 01:35:05;;;;;;;1.67;0.95;;;11.20;99.90;;;;;;5007139;28;20042;-65
2023/03/09 01:37:30;;;;;;;3.30;1.52;;;11.20;99.90;;;;;;5004959;28;20597;-65
2023/03/09 01:39:57;;;;;;;5.32;1.40;;;11.20;99.90;;;;;;5008034;28;20606;-64
2023/03/09 01:42:23;;;;;;;2.20;1.13;;;11.30;99.90;;;;;;5003953;28;20390;-64
2023/03/09 01:45:11;;;;;;;1.45;1.20;;;11.30;99.90;;;;;;5009251;28;20041;-65
2023/03/09 01:47:36;;;;;;;1.67;0.93;;;11.30;99.90;;;;;;5007399;28;20045;-65
2023/03/09 01:50:04;;;;;;;1.45;1.05;;;11.30;99.90;;;;;;5011415;28;20622;-65
2023/03/09 01:52:33;;;;;;;2.97;1.30;;;11.30;99.90;;;;;;5001262;28;20509;-65
2023/03/09 01:55:09;;;;;;;2.53;1.50;;;11.20;99.90;;;;;;5008244;28;20041;-65
2023/03/09 01:57:47;;;;;;;2.42;1.17;;;11.20;99.90;;;;;;5001777;28;21585;-64
2023/03/09 02:00:18;;;;;;;1.58;1.10;;;11.20;99.90;;;;;;5001693;28;20723;-65
2023/03/09 02:02:59;;;;;;;2.97;1.20;;;11.10;99.90;;;;;;5007806;28;20057;-65
2023/03/09 02:05:45;;;;;;;1.92;1.17;;;10.90;99.90;;;;;;5011363;28;20099;-65
2023/03/09 02:08:12;;;;;;;1.55;1.20;;;10.90;99.90;;;;;;5006445;28;20120;-64
2023/03/09 02:10:45;;;;;;;6.40;1.42;;;10.80;99.90;;;;;;5003305;28;20153;-64
2023/03/09 02:13:15;;;;;;;5.50;1.23;;;10.80;99.90;;;;;;5007983;28;20025;-64
2023/03/09 02:15:41;;;;;;;2.55;1.42;;;10.80;99.90;;;;;;5010789;28;20033;-64
2023/03/09 02:18:08;;;;;;;3.08;1.35;;;10.80;99.90;;;;;;5007561;28;20037;-64
2023/03/09 02:20:45;;;;;;;1.80;1.10;;;10.80;99.90;;;;;;5005525;28;20788;-64
2023/03/09 02:23:54;;;;;;;3.00;1.10;;;10.80;99.90;;;;;;5007222;28;20062;-64
2023/03/09 02:26:28;;;;;;;3.35;1.20;;;10.80;99.90;;;;;;4996070;28;20100;-64
2023/03/09 02:28:54;;;;;;;2.83;1.33;;;10.50;99.90;;;;;;5007473;28;20048;-64
2023/03/09 02:31:20;;;;;;;1.83;1.33;;;10.20;99.90;;;;;;5004420;28;20033;-64
2023/03/09 02:33:46;;;;;;;2.35;1.00;;;10.00;99.90;;;;;;5007924;28;20785;-64
2023/03/09 02:36:12;;;;;;;1.90;1.02;;;9.80;99.90;;;;;;5005155;28;20052;-64
2023/03/09 02:38:38;;;;;;;3.38;1.08;;;9.70;99.90;;;;;;4989634;28;20033;-64
2023/03/09 02:41:08;;;;;;;1.67;1.00;;;9.60;99.90;;;;;;5007267;28;20124;-64
2023/03/09 02:43:41;;;;;;;2.55;1.20;;;9.50;99.90;;;;;;5005458;28;20291;-64
2023/03/09 02:46:07;;;;;;;1.73;1.00;;;9.40;99.90;;;;;;5002862;28;20625;-64
2023/03/09 02:48:32;;;;;;;2.38;1.23;;;9.30;99.90;;;;;;5004985;28;20034;-64
2023/03/09 02:50:58;;;;;;;4.13;1.73;;;9.40;99.90;;;;;;5006302;28;20054;-64
2023/03/09 02:53:23;;;;;;;5.00;2.25;;;9.40;99.90;;;;;;5006020;28;20692;-64
2023/03/09 02:55:49;;;;;;;6.05;2.03;;;9.50;99.90;;;;;;5006469;28;20072;-65
2023/03/09 02:58:15;;;;;;;4.90;2.33;;;9.70;99.90;;;;;;5007143;28;20046;-64
2023/03/09 03:00:40;;;;;;;3.25;2.05;;;9.80;99.90;;;;;;5009546;28;20118;-64
2023/03/09 03:03:06;;;;;;;4.47;2.15;;;9.80;99.90;;;;;;5021908;28;20057;-64
2023/03/09 03:05:32;;;;;;;5.53;2.60;;;9.70;99.90;;;;;;5013586;28;20113;-64
2023/03/09 03:07:58;;;;;;;6.53;2.92;;;9.90;99.90;;;;;;5012971;28;20042;-64
2023/03/09 03:10:24;;;;;;;3.80;2.20;;;10.00;99.90;;;;;;5016171;28;20041;-64
2023/03/09 03:12:49;;;;;;;3.33;1.73;;;10.10;99.90;;;;;;5017871;28;20426;-64
2023/03/09 03:15:15;;;;;;;3.58;2.28;;;10.20;99.90;;;;;;5015031;28;20040;-63
2023/03/09 03:17:41;;;;;;;2.28;1.65;;;10.40;99.90;;;;;;5012054;28;20040;-64
2023/03/09 03:20:12;;;;;;;5.10;2.28;;;10.50;99.90;;;;;;5018626;28;20143;-64
2023/03/09 03:22:38;;;;;;;4.88;3.40;;;10.60;99.90;;;;;;5016128;28;20038;-64
2023/03/09 03:25:05;;;;;;;7.75;5.07;;;10.60;99.90;;;;;;5012912;28;20334;-64
2023/03/09 03:27:32;;;;;;;6.55;3.83;;;10.50;99.90;;;;;;5018941;28;20038;-64
2023/03/09 03:29:58;;;;;;;5.38;3.42;;;10.50;99.90;;;;;;5016802;28;20110;-64
2023/03/09 03:32:24;;;;;;;3.08;1.60;;;10.40;99.90;;;;;;5009881;28;20385;-64
2023/03/09 03:34:50;;;;;;;3.35;1.40;;;10.30;99.90;;;;;;5019289;28;20049;-64
2023/03/09 03:37:16;;;;;;;3.50;1.50;;;10.30;99.90;;;;;;5016868;28;20038;-64
2023/03/09 03:39:41;;;;;;;2.58;1.80;;;10.30;99.90;;;;;;5019647;28;20055;-64
2023/03/09 03:42:07;;;;;;;2.58;1.30;;;10.40;99.90;;;;;;5009120;28;20133;-64
2023/03/09 03:44:33;;;;;;;1.75;1.33;;;10.40;99.90;;;;;;5019662;28;20045;-64
2023/03/09 03:46:58;;;;;;;3.85;1.25;;;10.40;99.90;;;;;;5013995;28;21655;-64
2023/03/09 03:49:24;;;;;;;6.85;3.38;;;10.30;99.90;;;;;;5013979;28;20139;-64
2023/03/09 03:51:50;;;;;;;3.38;2.38;;;10.30;99.90;;;;;;5013714;28;20076;-65
2023/03/09 03:54:15;;;;;;;1.63;1.27;;;10.20;99.90;;;;;;5013508;28;20521;-64
2023/03/09 03:56:42;;;;;;;2.75;1.27;;;10.20;99.90;;;;;;5017100;28;20029;-64
2023/03/09 03:59:08;;;;;;;2.35;1.42;;;10.20;99.90;;;;;;5016691;28;20132;-64
2023/03/09 04:01:33;;;;;;;2.28;1.30;;;10.10;99.90;;;;;;5011852;28;20584;-64
2023/03/09 04:03:59;;;;;;;11.63;5.82;;;10.10;99.90;;;;;;5018193;28;20696;-64
2023/03/09 04:06:24;;;;;;;49.10;26.23;;;10.10;99.90;;;;;;5009196;28;20374;-64
2023/03/09 04:08:50;;;;;;;37.92;19.90;;;10.20;99.90;;;;;;5011704;28;20033;-64
2023/03/09 04:11:16;;;;;;;24.30;11.77;;;10.20;99.90;;;;;;5011350;28;20033;-64
2023/03/09 04:13:42;;;;;;;25.95;11.90;;;10.30;99.90;;;;;;5013674;28;20030;-64
2023/03/09 04:16:08;;;;;;;11.73;5.75;;;10.30;99.90;;;;;;5014486;28;20069;-64
2023/03/09 04:18:34;;;;;;;7.40;4.35;;;10.30;99.90;;;;;;5011711;28;20045;-65
2023/03/09 04:20:59;;;;;;;9.32;5.60;;;10.30;99.90;;;;;;5018008;28;20060;-64
2023/03/09 04:23:25;;;;;;;5.00;2.03;;;10.30;99.90;;;;;;5004966;28;20300;-64
2023/03/09 04:25:59;;;;;;;3.45;1.85;;;10.40;99.90;;;;;;5017943;28;20052;-64
2023/03/09 04:28:25;;;;;;;3.78;3.28;;;10.40;99.90;;;;;;5012805;28;20577;-64
2023/03/09 04:30:51;;;;;;;18.05;9.77;;;10.40;99.90;;;;;;5015330;28;20454;-64
2023/03/09 04:33:16;;;;;;;36.88;19.60;;;10.40;99.90;;;;;;5014411;28;20033;-66
2023/03/09 04:35:42;;;;;;;55.13;28.58;;;10.40;99.90;;;;;;5018033;28;20029;-64
2023/03/09 04:38:08;;;;;;;50.80;25.58;;;10.30;99.90;;;;;;5008979;28;20585;-65
2023/03/09 04:40:35;;;;;;;28.27;16.05;;;10.20;99.90;;;;;;5013240;28;20410;-65
2023/03/09 04:43:01;;;;;;;30.00;15.15;;;10.20;99.90;;;;;;5010874;28;20072;-65
2023/03/09 04:45:27;;;;;;;23.23;12.05;;;10.20;99.90;;;;;;5018723;28;20057;-65
2023/03/09 04:47:52;;;;;;;7.45;4.72;;;10.20;99.90;;;;;;5000509;28;20037;-65
2023/03/09 04:50:18;;;;;;;3.50;2.45;;;10.20;99.90;;;;;;5011793;28;20648;-65
2023/03/09 04:52:44;;;;;;;4.57;2.00;;;10.30;99.90;;;;;;5009511;28;20038;-65
2023/03/09 04:55:10;;;;;;;4.18;1.83;;;10.20;99.90;;;;;;5015228;28;20038;-65
2023/03/09 04:57:36;;;;;;;3.95;1.77;;;10.30;99.90;;;;;;5015283;28;20394;-65
2023/03/09 05:00:04;;;;;;;4.22;2.67;;;10.20;99.90;;;;;;5010379;28;20132;-77
2023/03/09 05:02:30;;;;;;;5.32;3.20;;;10.10;99.90;;;;;;5011635;28;20035;-78
2023/03/09 05:04:56;;;;;;;4.15;3.25;;;10.10;99.90;;;;;;5015047;28;20100;-77
2023/03/09 05:07:22;;;;;;;7.07;4.00;;;10.10;99.90;;;;;;5010527;28;20397;-78
2023/03/09 05:09:48;;;;;;;4.43;3.55;;;10.10;99.90;;;;;;5013399;28;20056;-78
2023/03/09 05:12:14;;;;;;;3.63;2.70;;;10.00;99.90;;;;;;5019788;28;20033;-78
2023/03/09 05:14:40;;;;;;;5.05;2.75;;;10.00;99.90;;;;;;5012975;28;20041;-78
2023/03/09 05:17:06;;;;;;;4.45;2.58;;;10.00;99.90;;;;;;5016250;28;20048;-78
2023/03/09 05:19:33;;;;;;;2.47;1.95;;;9.90;99.90;;;;;;5014742;28;20080;-77
2023/03/09 05:21:59;;;;;;;3.10;2.15;;;9.80;99.90;;;;;;5011912;28;20033;-77
2023/03/09 05:24:24;;;;;;;2.67;2.08;;;9.80;99.90;;;;;;5003725;28;20099;-78
2023/03/09 05:26:50;;;;;;;5.50;2.58;;;9.80;99.90;;;;;;4996677;28;20042;-78
2023/03/09 05:29:16;;;;;;;4.38;2.47;;;9.80;99.90;;;;;;5013122;28;20038;-76
2023/03/09 05:31:41;;;;;;;4.80;2.38;;;9.80;99.90;;;;;;5017915;28;20037;-76
2023/03/09 05:34:07;;;;;;;5.97;3.78;;;9.80;99.90;;;;;;5009591;28;20119;-77
2023/03/09 05:36:33;;;;;;;8.45;5.72;;;9.80;99.90;;;;;;5017007;28;20088;-77
2023/03/09 05:38:58;;;;;;;9.50;5.70;;;9.80;99.90;;;;;;5015033;28;20115;-77
2023/03/09 05:41:24;;;;;;;7.95;5.72;;;9.80;99.90;;;;;;5008621;28;20029;-77
2023/03/09 05:43:50;;;;;;;8.27;6.38;;;9.70;99.90;;;;;;4992632;28;20359;-79
2023/03/09 05:46:17;;;;;;;9.25;6.15;;;9.60;99.90;;;;;;5011113;28;20212;-74
2023/03/09 05:48:45;;;;;;;8.35;4.93;;;9.50;99.90;;;;;;5013669;28;20393;-78
2023/03/09 05:51:11;;;;;;;4.53;3.70;;;9.60;99.90;;;;;;5012062;28;20132;-76
2023/03/09 05:53:37;;;;;;;5.53;3.97;;;9.50;99.90;;;;;;5007308;28;20480;-76
2023/03/09 05:56:05;;;;;;;5.68;3.53;;;9.50;99.90;;;;;;5014423;28;20048;-76
2023/03/09 05:58:31;;;;;;;4.38;2.70;;;9.50;99.90;;;;;;5004303;28;20045;-75
2023/03/09 06:00:56;;;;;;;6.13;4.03;;;9.50;99.90;;;;;;5018817;28;20034;-75
2023/03/09 06:03:23;;;;;;;4.95;3.08;;;9.50;99.90;;;;;;5006464;28;20056;-78
2023/03/09 06:06:04;;;;;;;4.05;3.10;;;9.60;99.90;;;;;;5007658;28;20045;-80
2023/03/09 06:08:30;;;;;;;8.38;2.85;;;9.60;99.90;;;;;;5008801;28;20033;-75
2023/03/09 06:11:00;;;;;;;5.47;2.80;;;9.60;99.90;;;;;;4996499;28;20137;-79
2023/03/09 06:13:27;;;;;;;7.05;3.63;;;9.50;99.90;;;;;;5012574;28;20033;-79
2023/03/09 06:15:53;;;;;;;5.10;3.17;;;9.60;99.90;;;;;;5019780;28;20725;-77
2023/03/09 06:18:18;;;;;;;6.72;4.35;;;9.60;99.90;;;;;;5021830;28;20120;-77
2023/03/09 06:20:44;;;;;;;6.18;3.15;;;9.70;99.90;;;;;;5018742;28;20052;-81
2023/03/09 06:23:10;;;;;;;7.57;4.50;;;9.70;99.90;;;;;;5016578;28;20044;-82
2023/03/09 06:25:37;;;;;;;10.70;4.93;;;9.70;99.90;;;;;;5012620;28;20128;-82
2023/03/09 06:28:03;;;;;;;10.10;4.32;;;9.70;99.90;;;;;;5013807;28;20052;-83
2023/03/09 06:30:29;;;;;;;5.97;5.07;;;9.80;99.90;;;;;;5017051;28;20061;-79
2023/03/09 06:32:56;;;;;;;6.57;4.63;;;9.80;99.90;;;;;;5015477;28;20088;-76
2023/03/09 06:35:23;;;;;;;4.95;2.75;;;9.80;99.90;;;;;;5021207;28;20037;-78
2023/03/09 06:37:48;;;;;;;5.65;2.67;;;9.70;99.90;;;;;;5018995;28;20759;-82
2023/03/09 06:40:14;;;;;;;4.55;2.58;;;9.70;99.90;;;;;;5022484;28;20068;-79
2023/03/09 06:42:41;;;;;;;6.95;2.47;;;9.70;99.90;;;;;;5019397;28;20034;-77
2023/03/09 06:45:08;;;;;;;4.10;2.53;;;9.70;99.90;;;;;;5019958;28;20041;-77
2023/03/09 06:47:33;;;;;;;6.03;2.60;;;9.70;99.90;;;;;;5026193;28;20076;-76
2023/03/09 06:49:59;;;;;;;7.55;2.50;;;9.80;99.90;;;;;;5020530;28;20157;-79
2023/03/09 06:52:25;;;;;;;4.25;2.28;;;9.80;99.90;;;;;;5018614;28;20137;-76
2023/03/09 06:54:52;;;;;;;3.80;2.20;;;9.90;99.90;;;;;;5004128;28;20474;-77
2023/03/09 06:57:18;;;;;;;3.85;1.98;;;10.00;99.90;;;;;;5023630;28;20375;-74
2023/03/09 06:59:44;;;;;;;6.15;2.05;;;10.00;99.90;;;;;;5021270;28;20064;-74
2023/03/09 07:02:14;;;;;;;3.65;2.20;;;10.10;99.90;;;;;;5016077;28;20032;-81
2023/03/09 07:04:40;;;;;;;6.18;2.15;;;10.20;99.90;;;;;;5020528;28;20441;-78
2023/03/09 07:07:06;;;;;;;9.52;2.10;;;10.20;99.90;;;;;;5013443;28;20087;-80
2023/03/09 07:09:33;;;;;;;4.40;2.17;;;10.30;99.90;;;;;;5023479;28;20124;-82
2023/03/09 07:11:59;;;;;;;4.38;2.60;;;10.40;99.90;;;;;;5019763;28;20532;-82
2023/03/09 07:14:26;;;;;;;4.10;2.00;;;10.40;99.90;;;;;;5022884;28;20110;-87
2023/03/09 07:16:56;;;;;;;4.57;2.20;;;10.50;99.90;;;;;;5018122;28;20053;-81
2023/03/09 07:19:22;;;;;;;5.00;1.88;;;10.50;99.90;;;;;;5024677;28;20041;-82
2023/03/09 07:21:48;;;;;;;9.00;2.10;;;10.50;99.90;;;;;;5021521;28;20341;-87
2023/03/09 07:24:15;;;;;;;5.30;2.03;;;10.60;99.90;;;;;;5018938;28;20060;-83
2023/03/09 07:26:40;;;;;;;9.32;2.88;;;10.60;99.90;;;;;;5012983;28;20049;-83
2023/03/09 07:29:06;;;;;;;3.50;2.00;;;10.60;99.90;;;;;;5018291;28;20067;-87
2023/03/09 07:31:32;;;;;;;3.17;2.25;;;10.60;99.90;;;;;;5019914;28;20041;-87
2023/03/09 07:33:59;;;;;;;6.07;2.47;;;10.70;99.90;;;;;;5020256;28;20455;-80
2023/03/09 07:36:26;;;;;;;4.85;2.08;;;10.70;99.90;;;;;;5015122;28;20112;-80
2023/03/09 07:38:51;;;;;;;6.40;2.28;;;10.70;99.90;;;;;;5019242;28;20045;-82
2023/03/09 07:41:18;;;;;;;4.88;2.35;;;10.80;99.90;;;;;;5022323;28;20090;-81
2023/03/09 07:43:44;;;;;;;7.47;2.67;;;10.80;99.90;;;;;;5019799;28;20032;-86
2023/03/09 07:46:12;;;;;;;5.13;2.33;;;10.80;99.90;;;;;;5021638;28;20473;-84
2023/03/09 07:48:38;;;;;;;4.93;2.25;;;10.80;99.90;;;;;;5017123;28;20036;-88
2023/03/09 07:51:05;;;;;;;5.03;2.20;;;10.90;99.90;;;;;;5019794;28;20042;-86
2023/03/09 07:53:32;;;;;;;4.35;2.38;;;10.90;99.90;;;;;;5019999;28;20030;-84
2023/03/09 07:56:00;;;;;;;4.35;2.17;;;11.00;99.90;;;;;;5025041;28;20118;-87
2023/03/09 07:58:26;;;;;;;4.88;2.10;;;11.00;99.90;;;;;;5023782;28;20359;-83
2023/03/09 08:00:52;;;;;;;4.65;2.00;;;11.10;99.90;;;;;;5022640;28;20042;-82
2023/03/09 08:03:18;;;;;;;4.80;2.22;;;11.10;99.90;;;;;;5021322;28;20390;-65
2023/03/09 08:05:43;;;;;;;4.55;2.00;;;11.20;99.90;;;;;;5012968;28;20660;-65
2023/03/09 08:08:11;;;;;;;5.65;2.28;;;11.20;99.90;;;;;;5018594;28;20084;-65
2023/03/09 08:10:37;;;;;;;5.43;2.58;;;11.30;99.90;;;;;;5017770;28;20104;-65
2023/03/09 08:13:03;;;;;;;6.60;2.40;;;11.30;99.90;;;;;;5016009;28;20042;-65
2023/03/09 08:15:29;;;;;;;4.85;2.40;;;11.40;99.90;;;;;;5022129;28;20053;-65
2023/03/09 08:17:55;;;;;;;2.50;2.00;;;11.40;99.90;;;;;;5019714;28;20025;-65
2023/03/09 08:20:20;;;;;;;6.15;2.03;;;11.50;99.90;;;;;;5015619;28;20052;-65
2023/03/09 08:22:46;;;;;;;5.00;1.80;;;11.60;99.90;;;;;;5013226;28;20051;-65
2023/03/09 08:25:12;;;;;;;2.05;1.88;;;11.60;99.90;;;;;;5024475;28;20049;-65
2023/03/09 08:27:43;;;;;;;5.57;2.55;;;11.70;99.90;;;;;;5016644;28;20120;-65
2023/03/09 08:30:11;;;;;;;9.52;2.58;;;11.80;99.90;;;;;;5018928;28;20041;-65
2023/03/09 08:32:36;;;;;;;5.93;2.30;;;11.80;99.90;;;;;;5021058;28;20112;-65
2023/03/09 08:35:02;;;;;;;9.07;3.00;;;11.90;99.90;;;;;;5019377;28;20116;-65
2023/03/09 08:37:28;;;;;;;9.65;2.42;;;11.90;99.90;;;;;;5009501;28;20486;-65
2023/03/09 08:39:54;;;;;;;6.78;2.70;;;11.90;99.90;;;;;;5016963;28;20118;-65
2023/03/09 08:42:19;;;;;;;4.35;2.47;;;12.00;99.90;;;;;;5011281;28;20038;-65
2023/03/09 08:44:45;;;;;;;3.38;2.00;;;12.00;99.90;;;;;;5017794;28;20604;-65
2023/03/09 08:47:10;;;;;;;4.63;2.50;;;12.00;99.90;;;;;;5017527;28;20539;-65
2023/03/09 08:49:40;;;;;;;5.35;2.40;;;12.00;99.90;;;;;;5015766;28;20402;-65
2023/03/09 08:52:06;;;;;;;5.40;2.67;;;12.00;99.90;;;;;;5017983;28;20025;-65
2023/03/09 08:54:32;;;;;;;3.53;2.35;;;12.10;99.90;;;;;;5019376;28;20414;-65
2023/03/09 08:56:57;;;;;;;5.45;2.47;;;12.10;99.90;;;;;;5016666;28;20103;-65
2023/03/09 08:59:23;;;;;;;5.47;2.20;;;12.20;99.90;;;;;;5014484;28;20056;-65
2023/03/09 09:01:49;;;;;;;4.00;2.00;;;12.20;99.90;;;;;;5015502;28;20128;-65
2023/03/09 09:04:14;;;;;;;5.45;2.45;;;12.30;99.90;;;;;;5020344;28;20037;-65
2023/03/09 09:06:40;;;;;;;4.45;2.42;;;12.30;99.90;;;;;;5014823;28;21726;-65
2023/03/09 09:09:05;;;;;;;3.80;1.90;;;12.40;99.90;;;;;;5020741;28;20048;-65
2023/03/09 09:11:32;;;;;;;6.47;2.30;;;12.40;99.90;;;;;;5021417;28;20052;-65
2023/03/09 09:13:59;;;;;;;3.33;2.28;;;12.50;99.90;;;;;;5015941;28;20045;-65
2023/03/09 09:16:27;;;;;;;4.45;2.60;;;12.40;99.90;;;;;;5012713;28;20369;-65
2023/03/09 09:18:53;;;;;;;4.15;2.15;;;12.40;99.90;;;;;;5003265;28;20790;-65
2023/03/09 09:21:19;;;;;;;6.95;2.20;;;12.40;99.90;;;;;;5019564;28;20044;-66
2023/03/09 09:23:46;;;;;;;3.38;1.88;;;12.50;99.90;;;;;;5002913;28;20056;-65
2023/03/09 09:26:13;;;;;;;2.92;2.03;;;12.50;99.90;;;;;;5006299;28;20049;-65
2023/03/09 09:28:39;;;;;;;2.97;2.10;;;12.50;99.90;;;;;;5016524;28;20120;-65
2023/03/09 09:31:05;;;;;;;3.13;2.25;;;12.50;99.90;;;;;;5022957;28;20125;-65
2023/03/09 09:33:33;;;;;;;2.88;2.20;;;12.60;99.90;;;;;;5013712;28;20124;-65
2023/03/09 09:36:08;;;;;;;3.67;2.25;;;12.60;99.90;;;;;;5017953;28;20117;-65
2023/03/09 09:38:34;;;;;;;3.40;2.10;;;12.70;99.90;;;;;;5020803;28;20547;-65
2023/03/09 09:41:06;;;;;;;2.85;1.83;;;12.70;99.90;;;;;;5021376;28;20045;-65
2023/03/09 09:43:32;;;;;;;2.67;2.00;;;12.80;99.90;;;;;;5023323;28;20067;-66
2023/03/09 09:46:01;;;;;;;4.00;2.20;;;12.80;99.90;;;;;;5021325;28;20452;-65
2023/03/09 09:48:28;;;;;;;3.60;2.10;;;12.90;99.90;;;;;;5017115;28;20032;-65
2023/03/09 09:51:25;;;;;;;3.45;2.45;;;12.90;99.90;;;;;;5009489;28;20481;-65
2023/03/09 09:54:06;;;;;;;3.47;2.15;;;13.00;99.90;;;;;;5017479;28;20121;-65
2023/03/09 09:57:24;;;;;;;3.47;1.90;;;13.10;99.90;;;;;;5018237;28;20128;-64
2023/03/09 10:00:10;;;;;;;6.75;1.95;;;13.30;99.90;;;;;;4970426;28;20565;-65
2023/03/09 10:02:57;;;;;;;3.85;1.90;;;13.50;99.90;;;;;;5012759;28;20449;-65
2023/03/09 10:05:37;;;;;;;2.55;1.95;;;13.50;99.90;;;;;;5015970;28;20033;-65
2023/03/09 10:08:20;;;;;;;3.03;1.85;;;13.50;99.90;;;;;;5015094;28;20112;-65
2023/03/09 10:10:47;;;;;;;7.28;2.33;;;13.50;99.90;;;;;;5017146;28;20041;-65
2023/03/09 10:13:31;;;;;;;3.95;2.22;;;13.40;99.90;;;;;;5019121;28;20065;-65
2023/03/09 10:16:01;;;;;;;4.38;2.33;;;13.40;99.90;;;;;;5022845;28;20021;-64
2023/03/09 10:18:45;;;;;;;4.82;2.20;;;13.30;99.90;;;;;;5011395;28;20814;-65
2023/03/09 10:21:22;;;;;;;3.17;2.00;;;13.10;99.90;;;;;;5017469;28;20517;-64
2023/03/09 10:23:48;;;;;;;4.82;2.05;;;13.00;99.90;;;;;;5016117;28;20025;-64
2023/03/09 10:26:33;;;;;;;5.60;1.98;;;12.90;99.90;;;;;;5020987;28;20055;-65
2023/03/09 10:29:04;;;;;;;2.40;1.80;;;12.90;99.90;;;;;;5015733;28;20045;-65
2023/03/09 10:31:43;;;;;;;2.50;1.92;;;12.90;99.90;;;;;;5008925;28;20032;-64
2023/03/09 10:34:17;;;;;;;4.05;2.42;;;12.80;99.90;;;;;;5016049;28;20590;-65
2023/03/09 10:36:59;;;;;;;3.10;1.73;;;12.80;99.90;;;;;;5017919;28;20028;-65
2023/03/09 10:39:26;;;;;;;6.03;2.70;;;12.80;99.90;;;;;;5013831;28;20050;-65
2023/03/09 10:41:58;;;;;;;5.93;2.13;;;12.80;99.90;;;;;;5017080;28;20036;-65
2023/03/09 10:44:24;;;;;;;3.22;1.83;;;12.70;99.90;;;;;;5019107;28;20037;-65
2023/03/09 10:47:01;;;;;;;2.13;1.63;;;12.70;99.90;;;;;;5018838;28;20066;-65
2023/03/09 10:49:27;;;;;;;5.28;2.25;;;12.60;99.90;;;;;;5016665;28;20068;-64
2023/03/09 10:52:01;;;;;;;6.03;1.90;;;12.50;99.90;;;;;;5019264;28;20032;-65
2023/03/09 10:54:33;;;;;;;4.45;1.85;;;12.50;99.90;;;;;;5015067;28;20042;-64
2023/03/09 10:56:59;;;;;;;5.68;2.25;;;12.50;99.90;;;;;;5016510;28;20664;-63
2023/03/09 10:59:29;;;;;;;5.38;2.20;;;12.50;99.90;;;;;;5014585;28;20056;-63
2023/03/09 11:01:59;;;;;;;4.10;2.35;;;12.40;99.90;;;;;;5011389;28;20056;-63
2023/03/09 11:04:32;;;;;;;3.28;2.45;;;12.40;99.90;;;;;;5012252;28;20064;-62
2023/03/09 11:07:04;;;;;;;5.40;2.55;;;12.40;99.90;;;;;;5018560;28;20045;-63
2023/03/09 11:09:32;;;;;;;;;;;12.40;99.90;;;;;;5015257;28;20561;-64
2023/03/09 11:12:36;;;;;;;2.50;1.90;;;12.50;99.90;;;;;;4997159;28;19917;-63
2023/03/09 11:15:30;;;;;;;4.07;2.30;;;12.50;99.90;;;;;;5013931;28;20042;-63
2023/03/09 11:17:57;;;;;;;4.22;2.30;;;12.60;99.90;;;;;;5004537;28;21176;-63
2023/03/09 11:20:33;;;;;;;3.60;2.40;;;12.70;99.90;;;;;;5019555;28;20097;-63
2023/03/09 11:23:39;;;;;;;3.10;2.55;;;12.70;99.90;;;;;;5015920;28;20041;-64
2023/03/09 11:26:16;;;;;;;4.25;2.40;;;12.80;99.90;;;;;;5014590;28;20057;-63
2023/03/09 11:29:06;;;;;;;5.25;2.67;;;12.80;99.90;;;;;;5020169;28;20037;-63
2023/03/09 11:31:39;;;;;;;3.72;2.50;;;12.80;99.90;;;;;;5019885;28;20344;-63
2023/03/09 11:34:25;;;;;;;3.10;2.50;;;12.90;99.90;;;;;;5015907;28;20056;-63
2023/03/09 11:36:58;;;;;;;2.88;2.50;;;12.80;99.90;;;;;;5015471;28;20042;-63
2023/03/09 11:39:50;;;;;;;3.75;2.63;;;12.90;99.90;;;;;;5017684;28;20103;-64
2023/03/09 11:42:21;;;;;;;5.20;2.38;;;12.90;99.90;;;;;;5016946;28;20195;-64
2023/03/09 11:44:48;;;;;;;5.40;2.45;;;13.00;99.90;;;;;;5020888;28;20119;-63
2023/03/09 11:47:35;;;;;;;4.15;2.75;;;12.90;99.90;;;;;;5019774;28;20022;-63
2023/03/09 11:50:12;;;;;;;3.67;2.53;;;12.90;99.90;;;;;;5018336;28;20092;-63
2023/03/09 11:53:06;;;;;;;3.42;2.05;;;12.90;99.90;;;;;;5017191;28;20398;-63
2023/03/09 11:55:40;;;;;;;5.05;2.45;;;12.90;99.90;;;;;;4992846;28;20064;-64
2023/03/09 11:58:14;;;;;;;2.97;2.20;;;12.90;99.90;;;;;;5017723;28;20029;-64
2023/03/09 12:00:46;;;;;;;3.75;2.20;;;13.00;99.90;;;;;;5018422;28;20057;-64
2023/03/09 12:03:16;;;;;;;3.85;2.25;;;12.90;99.90;;;;;;5016944;28;20541;-64
2023/03/09 12:05:51;;;;;;;2.20;1.80;;;13.00;99.90;;;;;;5013740;28;20515;-64
2023/03/09 12:08:31;;;;;;;3.10;1.85;;;13.10;99.90;;;;;;5017912;28;20516;-63
2023/03/09 12:11:03;;;;;;;2.63;1.80;;;13.20;99.90;;;;;;5016420;28;20106;-64
2023/03/09 12:13:33;;;;;;;2.38;1.70;;;13.20;99.90;;;;;;5009151;28;20546;-64
2023/03/09 12:16:11;;;;;;;2.75;1.67;;;13.30;99.90;;;;;;5015474;28;20032;-64
2023/03/09 12:18:41;;;;;;;2.47;1.70;;;13.40;99.90;;;;;;5016685;28;20030;-64
2023/03/09 12:21:09;;;;;;;3.03;1.77;;;13.50;99.90;;;;;;5015286;28;21143;-64
2023/03/09 12:23:35;;;;;;;2.47;1.60;;;13.70;99.90;;;;;;5022085;28;20030;-64
2023/03/09 12:26:02;;;;;;;4.22;1.38;;;14.00;99.90;;;;;;5012368;28;20054;-64
2023/03/09 12:28:29;;;;;;;1.95;1.23;;;14.20;99.90;;;;;;5017601;28;20499;-64
2023/03/09 12:30:57;;;;;;;1.65;1.13;;;14.30;99.90;;;;;;5018218;28;20041;-64
2023/03/09 12:33:41;;;;;;;2.85;1.10;;;14.30;99.90;;;;;;5019209;28;20495;-64
2023/03/09 12:36:21;;;;;;;1.10;1.00;;;14.20;99.90;;;;;;5016491;28;20045;-64
2023/03/09 12:39:06;;;;;;;3.05;1.05;;;14.20;99.90;;;;;;5017722;28;20444;-64
2023/03/09 12:41:55;;;;;;;1.90;0.93;;;14.10;99.90;;;;;;5022335;28;20498;-63
2023/03/09 12:44:46;;;;;;;3.53;0.90;;;14.10;99.90;;;;;;5017226;28;20148;-64
2023/03/09 12:47:35;;;;;;;1.45;0.65;;;14.00;99.90;;;;;;5021459;28;20042;-64
2023/03/09 12:50:04;;;;;;;0.70;0.70;;;14.10;99.90;;;;;;5024638;28;20037;-64
2023/03/09 12:52:55;;;;;;;2.05;0.85;;;14.10;99.90;;;;;;5009228;28;20045;-64
2023/03/09 12:55:26;;;;;;;1.20;1.10;;;14.00;99.90;;;;;;5016044;28;20037;-64
2023/03/09 12:58:17;;;;;;;1.60;1.00;;;14.10;99.90;;;;;;5018158;28;20033;-63
2023/03/09 13:00:53;;;;;;;1.45;0.95;;;14.20;99.90;;;;;;5019845;28;20113;-64